sensor_id;sensor_type;location;lat;lon;timestamp;temperature;humidity
6666;DHT22;3369;49.906;8.598;2023-02-12T00:01:29;5.50;99.90
6666;DHT22;3369;49.906;8.598;2023-02-12T00:03:55;5.50;99.90
6666;DHT22;3369;49.906;8.598;2023-02-12T00:06:21;5.50;99.90
6666;DHT22;3369;49.906;8.598;2023-02-12T00:08:51;5.50;99.90
6666;DHT22;3369;49.906;8.598;2023-02-12T00:11:24;5.50;99.90
6666;DHT22;3369;49.906;8.598;2023-02-12T00:13:50;5.40;99.90
6666;DHT22;3369;49.906;8.598;2023-02-12T00:16:19;5.50;99.90
6666;DHT22;3369;49.906;8.598;2023-02-12T00:18:45;5.50;99.90
6666;DHT22;3369;49.906;8.598;2023-02-12T00:21:11;5.50;99.90
6666;DHT22;3369;49.906;8.598;2023-02-12T00:23:39;5.50;99.90
6666;DHT22;3369;49.906;8.598;2023-02-12T00:26:23;5.50;99.90
6666;DHT22;3369;49.906;8.598;2023-02-12T00:28:50;5.50;99.90
6666;DHT22;3369;49.906;8.598;2023-02-12T00:31:18;5.50;99.90
6666;DHT22;3369;49.906;8.598;2023-02-12T00:33:44;5.40;99.90
6666;DHT22;3369;49.906;8.598;2023-02-12T00:36:14;5.50;99.90
6666;DHT22;3369;49.906;8.598;2023-02-12T00:38:40;5.50;99.90
6666;DHT22;3369;49.906;8.598;2023-02-12T00:41:06;5.50;99.90
6666;DHT22;3369;49.906;8.598;2023-02-12T00:43:32;5.40;99.90
6666;DHT22;3369;49.906;8.598;2023-02-12T00:45:57;5.50;99.90
6666;DHT22;3369;49.906;8.598;2023-02-12T00:48:23;5.50;99.90
6666;DHT22;3369;49.906;8.598;2023-02-12T00:50:49;5.50;99.90
6666;DHT22;3369;49.906;8.598;2023-02-12T00:53:14;5.50;99.90
6666;DHT22;3369;49.906;8.598;2023-02-12T00:55:40;5.50;99.90
6666;DHT22;3369;49.906;8.598;2023-02-12T00:58:06;5.50;99.90
6666;DHT22;3369;49.906;8.598;2023-02-12T01:00:33;5.50;99.90
6666;DHT22;3369;49.906;8.598;2023-02-12T01:02:58;5.50;99.90
6666;DHT22;3369;49.906;8.598;2023-02-12T01:05:24;5.50;99.90
6666;DHT22;3369;49.906;8.598;2023-02-12T01:07:51;5.50;99.90
6666;DHT22;3369;49.906;8.598;2023-02-12T01:10:17;5.50;99.90
6666;DHT22;3369;49.906;8.598;2023-02-12T01:12:45;5.50;99.90
6666;DHT22;3369;49.906;8.598;2023-02-12T01:15:12;5.50;99.90
6666;DHT22;3369;49.906;8.598;2023-02-12T01:17:37;5.50;99.90
6666;DHT22;3369;49.906;8.598;2023-02-12T01:20:05;5.50;99.90
6666;DHT22;3369;49.906;8.598;2023-02-12T01:22:33;5.50;99.90
6666;DHT22;3369;49.906;8.598;2023-02-12T01:24:59;5.50;99.90
6666;DHT22;3369;49.906;8.598;2023-02-12T01:27:24;5.50;99.90
6666;DHT22;3369;49.906;8.598;2023-02-12T01:29:50;5.50;99.90
6666;DHT22;3369;49.906;8.598;2023-02-12T01:32:16;5.40;99.90
6666;DHT22;3369;49.906;8.598;2023-02-12T01:34:41;5.40;99.90
6666;DHT22;3369;49.906;8.598;2023-02-12T01:37:07;5.50;99.90
6666;DHT22;3369;49.906;8.598;2023-02-12T01:39:33;5.40;99.90
6666;DHT22;3369;49.906;8.598;2023-02-12T01:42:00;5.40;99.90
6666;DHT22;3369;49.906;8.598;2023-02-12T01:44:31;5.40;99.90
6666;DHT22;3369;49.906;8.598;2023-02-12T01:46:58;5.40;99.90
6666;DHT22;3369;49.906;8.598;2023-02-12T01:49:45;5.30;99.90
6666;DHT22;3369;49.906;8.598;2023-02-12T01:52:17;5.40;99.90
6666;DHT22;3369;49.906;8.598;2023-02-12T01:54:48;5.40;99.90
6666;DHT22;3369;49.906;8.598;2023-02-12T01:57:16;5.40;99.90
6666;DHT22;3369;49.906;8.598;2023-02-12T01:59:44;5.40;99.90
6666;DHT22;3369;49.906;8.598;2023-02-12T02:02:11;5.40;99.90
6666;DHT22;3369;49.906;8.598;2023-02-12T02:04:44;5.30;99.90
6666;DHT22;3369;49.906;8.598;2023-02-12T02:07:11;5.40;99.90
6666;DHT22;3369;49.906;8.598;2023-02-12T02:09:38;5.30;99.90
6666;DHT22;3369;49.906;8.598;2023-02-12T02:12:05;5.30;99.90
6666;DHT22;3369;49.906;8.598;2023-02-12T02:14:52;5.30;99.90
6666;DHT22;3369;49.906;8.598;2023-02-12T02:39:52;5.30;99.90
6666;DHT22;3369;49.906;8.598;2023-02-12T02:45:37;5.40;99.90
6666;DHT22;3369;49.906;8.598;2023-02-12T02:48:13;5.50;99.90
6666;DHT22;3369;49.906;8.598;2023-02-12T02:50:44;5.50;99.90
6666;DHT22;3369;49.906;8.598;2023-02-12T02:53:25;5.60;99.90
6666;DHT22;3369;49.906;8.598;2023-02-12T02:55:53;5.70;99.90
6666;DHT22;3369;49.906;8.598;2023-02-12T02:58:30;5.70;99.90
6666;DHT22;3369;49.906;8.598;2023-02-12T03:01:10;5.80;99.90
6666;DHT22;3369;49.906;8.598;2023-02-12T03:04:22;5.80;99.90
6666;DHT22;3369;49.906;8.598;2023-02-12T03:09:02;5.90;99.90
6666;DHT22;3369;49.906;8.598;2023-02-12T03:11:32;5.90;99.90
6666;DHT22;3369;49.906;8.598;2023-02-12T03:16:41;5.90;99.90
6666;DHT22;3369;49.906;8.598;2023-02-12T03:19:18;5.90;99.90
6666;DHT22;3369;49.906;8.598;2023-02-12T03:22:03;5.80;99.90
6666;DHT22;3369;49.906;8.598;2023-02-12T03:24:43;5.80;99.90
6666;DHT22;3369;49.906;8.598;2023-02-12T03:27:22;5.80;99.90
6666;DHT22;3369;49.906;8.598;2023-02-12T03:29:51;5.90;99.90
6666;DHT22;3369;49.906;8.598;2023-02-12T03:35:37;5.90;99.90
6666;DHT22;3369;49.906;8.598;2023-02-12T03:38:23;5.90;99.90
6666;DHT22;3369;49.906;8.598;2023-02-12T03:41:04;5.90;99.90
6666;DHT22;3369;49.906;8.598;2023-02-12T03:46:18;5.90;99.90
6666;DHT22;3369;49.906;8.598;2023-02-12T03:48:59;5.90;99.90
6666;DHT22;3369;49.906;8.598;2023-02-12T03:53:57;5.90;99.90
6666;DHT22;3369;49.906;8.598;2023-02-12T03:56:43;5.90;99.90
6666;DHT22;3369;49.906;8.598;2023-02-12T03:59:10;5.90;99.90
6666;DHT22;3369;49.906;8.598;2023-02-12T04:01:36;5.90;99.90
6666;DHT22;3369;49.906;8.598;2023-02-12T04:04:04;5.90;99.90
6666;DHT22;3369;49.906;8.598;2023-02-12T04:06:30;5.90;99.90
6666;DHT22;3369;49.906;8.598;2023-02-12T04:09:00;5.90;99.90
6666;DHT22;3369;49.906;8.598;2023-02-12T04:14:17;5.90;99.90
6666;DHT22;3369;49.906;8.598;2023-02-12T04:26:04;6.10;99.90
6666;DHT22;3369;49.906;8.598;2023-02-12T04:28:56;6.10;99.90
6666;DHT22;3369;49.906;8.598;2023-02-12T04:31:32;6.10;99.90
6666;DHT22;3369;49.906;8.598;2023-02-12T04:36:36;6.10;99.90
6666;DHT22;3369;49.906;8.598;2023-02-12T04:39:14;6.10;99.90
6666;DHT22;3369;49.906;8.598;2023-02-12T04:41:41;6.10;99.90
6666;DHT22;3369;49.906;8.598;2023-02-12T04:44:17;6.10;99.90
6666;DHT22;3369;49.906;8.598;2023-02-12T04:46:42;6.10;99.90
6666;DHT22;3369;49.906;8.598;2023-02-12T04:49:13;6.10;99.90
6666;DHT22;3369;49.906;8.598;2023-02-12T04:51:40;6.10;99.90
6666;DHT22;3369;49.906;8.598;2023-02-12T04:54:05;6.10;99.90
6666;DHT22;3369;49.906;8.598;2023-02-12T04:56:31;6.10;99.90
6666;DHT22;3369;49.906;8.598;2023-02-12T04:58:57;6.20;99.90
6666;DHT22;3369;49.906;8.598;2023-02-12T05:01:23;6.10;99.90
6666;DHT22;3369;49.906;8.598;2023-02-12T05:03:50;6.10;99.90
6666;DHT22;3369;49.906;8.598;2023-02-12T05:06:16;6.10;99.90
6666;DHT22;3369;49.906;8.598;2023-02-12T05:08:41;6.10;99.90
6666;DHT22;3369;49.906;8.598;2023-02-12T05:11:08;6.10;99.90
6666;DHT22;3369;49.906;8.598;2023-02-12T05:13:34;6.10;99.90
6666;DHT22;3369;49.906;8.598;2023-02-12T05:16:03;6.10;99.90
6666;DHT22;3369;49.906;8.598;2023-02-12T05:18:30;6.00;99.90
6666;DHT22;3369;49.906;8.598;2023-02-12T05:21:02;5.90;99.90
6666;DHT22;3369;49.906;8.598;2023-02-12T05:23:30;5.80;99.90
6666;DHT22;3369;49.906;8.598;2023-02-12T05:26:00;5.80;99.90
6666;DHT22;3369;49.906;8.598;2023-02-12T05:28:27;5.70;99.90
6666;DHT22;3369;49.906;8.598;2023-02-12T05:30:52;5.70;99.90
6666;DHT22;3369;49.906;8.598;2023-02-12T05:33:18;5.70;99.90
6666;DHT22;3369;49.906;8.598;2023-02-12T05:35:44;5.70;99.90
6666;DHT22;3369;49.906;8.598;2023-02-12T05:38:09;5.60;99.90
6666;DHT22;3369;49.906;8.598;2023-02-12T05:40:35;5.60;99.90
6666;DHT22;3369;49.906;8.598;2023-02-12T05:43:01;5.60;99.90
6666;DHT22;3369;49.906;8.598;2023-02-12T05:45:27;5.60;99.90
6666;DHT22;3369;49.906;8.598;2023-02-12T05:47:54;5.50;99.90
6666;DHT22;3369;49.906;8.598;2023-02-12T05:50:20;5.50;99.90
6666;DHT22;3369;49.906;8.598;2023-02-12T05:52:46;5.50;99.90
6666;DHT22;3369;49.906;8.598;2023-02-12T05:55:11;5.50;99.90
6666;DHT22;3369;49.906;8.598;2023-02-12T05:57:37;5.50;99.90
6666;DHT22;3369;49.906;8.598;2023-02-12T06:00:04;5.40;99.90
6666;DHT22;3369;49.906;8.598;2023-02-12T06:02:35;5.40;99.90
6666;DHT22;3369;49.906;8.598;2023-02-12T06:05:01;5.40;99.90
6666;DHT22;3369;49.906;8.598;2023-02-12T06:07:26;5.40;99.90
6666;DHT22;3369;49.906;8.598;2023-02-12T06:09:52;5.30;99.90
6666;DHT22;3369;49.906;8.598;2023-02-12T06:12:19;5.30;99.90
6666;DHT22;3369;49.906;8.598;2023-02-12T06:14:45;5.30;99.90
6666;DHT22;3369;49.906;8.598;2023-02-12T06:17:11;5.30;99.90
6666;DHT22;3369;49.906;8.598;2023-02-12T06:19:36;5.30;99.90
6666;DHT22;3369;49.906;8.598;2023-02-12T06:22:02;5.20;99.90
6666;DHT22;3369;49.906;8.598;2023-02-12T06:24:27;5.20;99.90
6666;DHT22;3369;49.906;8.598;2023-02-12T06:26:53;5.20;99.90
6666;DHT22;3369;49.906;8.598;2023-02-12T06:29:19;5.20;99.90
6666;DHT22;3369;49.906;8.598;2023-02-12T06:31:45;5.20;99.90
6666;DHT22;3369;49.906;8.598;2023-02-12T06:34:13;5.20;99.90
6666;DHT22;3369;49.906;8.598;2023-02-12T06:36:41;5.20;99.90
6666;DHT22;3369;49.906;8.598;2023-02-12T06:39:07;5.20;99.90
6666;DHT22;3369;49.906;8.598;2023-02-12T06:41:33;5.20;99.90
6666;DHT22;3369;49.906;8.598;2023-02-12T06:43:59;5.10;99.90
6666;DHT22;3369;49.906;8.598;2023-02-12T06:46:25;5.00;99.90
6666;DHT22;3369;49.906;8.598;2023-02-12T06:48:55;5.00;99.90
6666;DHT22;3369;49.906;8.598;2023-02-12T06:51:21;4.90;99.90
6666;DHT22;3369;49.906;8.598;2023-02-12T06:53:48;4.90;99.90
6666;DHT22;3369;49.906;8.598;2023-02-12T06:56:15;4.80;99.90
6666;DHT22;3369;49.906;8.598;2023-02-12T06:58:43;4.80;99.90
6666;DHT22;3369;49.906;8.598;2023-02-12T07:03:41;4.80;99.90
6666;DHT22;3369;49.906;8.598;2023-02-12T07:06:07;4.80;99.90
6666;DHT22;3369;49.906;8.598;2023-02-12T07:08:33;4.80;99.90
6666;DHT22;3369;49.906;8.598;2023-02-12T07:10:59;4.80;99.90
6666;DHT22;3369;49.906;8.598;2023-02-12T07:13:24;4.80;99.90
6666;DHT22;3369;49.906;8.598;2023-02-12T07:15:50;4.80;99.90
6666;DHT22;3369;49.906;8.598;2023-02-12T07:18:15;4.80;99.90
6666;DHT22;3369;49.906;8.598;2023-02-12T07:20:41;4.80;99.90
6666;DHT22;3369;49.906;8.598;2023-02-12T07:23:10;4.80;99.90
6666;DHT22;3369;49.906;8.598;2023-02-12T07:25:36;4.90;99.90
6666;DHT22;3369;49.906;8.598;2023-02-12T07:28:02;4.90;99.90
6666;DHT22;3369;49.906;8.598;2023-02-12T07:30:27;4.90;99.90
6666;DHT22;3369;49.906;8.598;2023-02-12T07:32:53;4.90;99.90
6666;DHT22;3369;49.906;8.598;2023-02-12T07:35:19;4.90;99.90
6666;DHT22;3369;49.906;8.598;2023-02-12T07:37:44;4.90;99.90
6666;DHT22;3369;49.906;8.598;2023-02-12T07:40:10;4.80;99.90
6666;DHT22;3369;49.906;8.598;2023-02-12T07:42:36;4.90;99.90
6666;DHT22;3369;49.906;8.598;2023-02-12T07:45:02;4.90;99.90
6666;DHT22;3369;49.906;8.598;2023-02-12T07:47:27;5.00;99.90
6666;DHT22;3369;49.906;8.598;2023-02-12T07:49:53;5.00;99.90
6666;DHT22;3369;49.906;8.598;2023-02-12T07:52:19;5.00;99.90
6666;DHT22;3369;49.906;8.598;2023-02-12T07:54:44;5.00;99.90
6666;DHT22;3369;49.906;8.598;2023-02-12T07:57:10;5.10;99.90
6666;DHT22;3369;49.906;8.598;2023-02-12T07:59:35;5.10;99.90
6666;DHT22;3369;49.906;8.598;2023-02-12T08:02:01;5.20;99.90
6666;DHT22;3369;49.906;8.598;2023-02-12T08:04:27;5.20;99.90
6666;DHT22;3369;49.906;8.598;2023-02-12T08:06:54;5.20;99.90
6666;DHT22;3369;49.906;8.598;2023-02-12T08:09:22;5.20;99.90
6666;DHT22;3369;49.906;8.598;2023-02-12T08:11:49;5.30;99.90
6666;DHT22;3369;49.906;8.598;2023-02-12T08:14:16;5.40;99.90
6666;DHT22;3369;49.906;8.598;2023-02-12T08:16:44;5.40;99.90
6666;DHT22;3369;49.906;8.598;2023-02-12T08:19:10;5.40;99.90
6666;DHT22;3369;49.906;8.598;2023-02-12T08:21:36;5.40;99.90
6666;DHT22;3369;49.906;8.598;2023-02-12T08:24:02;5.50;99.90
6666;DHT22;3369;49.906;8.598;2023-02-12T08:26:33;5.60;99.90
6666;DHT22;3369;49.906;8.598;2023-02-12T08:29:04;5.80;99.90
6666;DHT22;3369;49.906;8.598;2023-02-12T08:31:35;5.90;99.90
6666;DHT22;3369;49.906;8.598;2023-02-12T08:34:01;6.10;99.90
6666;DHT22;3369;49.906;8.598;2023-02-12T08:36:30;6.20;99.90
6666;DHT22;3369;49.906;8.598;2023-02-12T08:38:58;6.30;99.90
6666;DHT22;3369;49.906;8.598;2023-02-12T08:41:27;6.40;99.90
6666;DHT22;3369;49.906;8.598;2023-02-12T08:43:54;6.50;99.90
6666;DHT22;3369;49.906;8.598;2023-02-12T08:46:22;6.70;99.90
6666;DHT22;3369;49.906;8.598;2023-02-12T08:48:54;6.80;99.90
6666;DHT22;3369;49.906;8.598;2023-02-12T08:51:23;6.70;99.90
6666;DHT22;3369;49.906;8.598;2023-02-12T08:53:52;6.70;99.90
6666;DHT22;3369;49.906;8.598;2023-02-12T08:56:19;6.70;99.90
6666;DHT22;3369;49.906;8.598;2023-02-12T08:58:45;6.70;99.90
6666;DHT22;3369;49.906;8.598;2023-02-12T09:01:17;6.70;99.90
6666;DHT22;3369;49.906;8.598;2023-02-12T09:03:43;6.70;99.90
6666;DHT22;3369;49.906;8.598;2023-02-12T09:06:10;6.80;99.90
6666;DHT22;3369;49.906;8.598;2023-02-12T09:08:37;6.80;99.90
6666;DHT22;3369;49.906;8.598;2023-02-12T09:11:08;6.80;99.90
6666;DHT22;3369;49.906;8.598;2023-02-12T09:13:35;6.80;99.90
6666;DHT22;3369;49.906;8.598;2023-02-12T09:16:02;6.80;99.90
6666;DHT22;3369;49.906;8.598;2023-02-12T09:18:28;6.80;99.90
6666;DHT22;3369;49.906;8.598;2023-02-12T09:20:54;6.90;99.90
6666;DHT22;3369;49.906;8.598;2023-02-12T09:23:20;6.90;99.90
6666;DHT22;3369;49.906;8.598;2023-02-12T09:25:46;6.90;99.90
6666;DHT22;3369;49.906;8.598;2023-02-12T09:28:13;7.00;99.90
6666;DHT22;3369;49.906;8.598;2023-02-12T09:30:39;7.00;99.90
6666;DHT22;3369;49.906;8.598;2023-02-12T09:33:06;7.10;99.90
6666;DHT22;3369;49.906;8.598;2023-02-12T09:35:35;7.10;99.90
6666;DHT22;3369;49.906;8.598;2023-02-12T09:38:01;7.10;99.90
6666;DHT22;3369;49.906;8.598;2023-02-12T09:46:27;7.30;99.90
6666;DHT22;3369;49.906;8.598;2023-02-12T09:49:09;7.30;99.90
6666;DHT22;3369;49.906;8.598;2023-02-12T09:51:43;7.30;99.90
6666;DHT22;3369;49.906;8.598;2023-02-12T09:54:15;7.30;99.90
6666;DHT22;3369;49.906;8.598;2023-02-12T09:56:45;7.40;99.90
6666;DHT22;3369;49.906;8.598;2023-02-12T09:59:20;7.40;99.90
6666;DHT22;3369;49.906;8.598;2023-02-12T10:01:50;7.40;99.90
6666;DHT22;3369;49.906;8.598;2023-02-12T10:04:16;7.50;99.90
6666;DHT22;3369;49.906;8.598;2023-02-12T10:06:49;7.50;99.90
6666;DHT22;3369;49.906;8.598;2023-02-12T10:09:30;7.50;99.90
6666;DHT22;3369;49.906;8.598;2023-02-12T10:13:04;7.60;99.90
6666;DHT22;3369;49.906;8.598;2023-02-12T10:20:08;7.80;99.90
6666;DHT22;3369;49.906;8.598;2023-02-12T10:25:58;7.90;99.90
6666;DHT22;3369;49.906;8.598;2023-02-12T10:28:38;7.90;99.90
6666;DHT22;3369;49.906;8.598;2023-02-12T10:33:45;8.00;99.90
6666;DHT22;3369;49.906;8.598;2023-02-12T10:36:56;8.10;99.90
6666;DHT22;3369;49.906;8.598;2023-02-12T10:39:23;8.10;99.90
6666;DHT22;3369;49.906;8.598;2023-02-12T10:42:02;8.20;99.90
6666;DHT22;3369;49.906;8.598;2023-02-12T10:44:30;8.20;99.90
6666;DHT22;3369;49.906;8.598;2023-02-12T10:46:56;8.20;99.90
6666;DHT22;3369;49.906;8.598;2023-02-12T10:49:21;8.30;99.90
6666;DHT22;3369;49.906;8.598;2023-02-12T10:52:04;8.30;99.90
6666;DHT22;3369;49.906;8.598;2023-02-12T10:57:10;8.50;99.90
6666;DHT22;3369;49.906;8.598;2023-02-12T10:59:38;8.50;99.90
6666;DHT22;3369;49.906;8.598;2023-02-12T11:04:46;8.70;99.90
6666;DHT22;3369;49.906;8.598;2023-02-12T11:07:11;8.80;99.90
6666;DHT22;3369;49.906;8.598;2023-02-12T11:09:40;8.80;99.90
6666;DHT22;3369;49.906;8.598;2023-02-12T11:12:32;8.80;99.90
6666;DHT22;3369;49.906;8.598;2023-02-12T11:15:15;8.90;99.90
6666;DHT22;3369;49.906;8.598;2023-02-12T11:17:44;8.90;99.90
6666;DHT22;3369;49.906;8.598;2023-02-12T11:22:54;9.00;99.90
6666;DHT22;3369;49.906;8.598;2023-02-12T11:25:22;9.00;99.90
6666;DHT22;3369;49.906;8.598;2023-02-12T11:28:18;9.00;99.90
6666;DHT22;3369;49.906;8.598;2023-02-12T11:30:56;9.00;99.90
6666;DHT22;3369;49.906;8.598;2023-02-12T11:33:24;9.00;99.90
6666;DHT22;3369;49.906;8.598;2023-02-12T11:38:36;9.10;99.90
6666;DHT22;3369;49.906;8.598;2023-02-12T11:41:19;9.10;99.90
6666;DHT22;3369;49.906;8.598;2023-02-12T11:43:47;9.10;99.90
6666;DHT22;3369;49.906;8.598;2023-02-12T11:46:22;9.20;99.90
6666;DHT22;3369;49.906;8.598;2023-02-12T11:48:50;9.20;99.90
6666;DHT22;3369;49.906;8.598;2023-02-12T11:51:24;9.30;99.90
6666;DHT22;3369;49.906;8.598;2023-02-12T11:53:52;9.30;99.90
6666;DHT22;3369;49.906;8.598;2023-02-12T11:56:18;9.30;99.90
6666;DHT22;3369;49.906;8.598;2023-02-12T11:58:46;9.40;99.90
6666;DHT22;3369;49.906;8.598;2023-02-12T12:01:29;9.40;99.90
6666;DHT22;3369;49.906;8.598;2023-02-12T12:04:03;9.50;99.90
6666;DHT22;3369;49.906;8.598;2023-02-12T12:06:35;9.50;99.90
6666;DHT22;3369;49.906;8.598;2023-02-12T12:09:12;9.50;99.90
6666;DHT22;3369;49.906;8.598;2023-02-12T12:14:30;9.60;99.90
6666;DHT22;3369;49.906;8.598;2023-02-12T12:17:13;9.60;99.90
6666;DHT22;3369;49.906;8.598;2023-02-12T12:20:08;9.60;99.90
6666;DHT22;3369;49.906;8.598;2023-02-12T12:22:53;9.70;99.90
6666;DHT22;3369;49.906;8.598;2023-02-12T12:25:26;9.70;99.90
6666;DHT22;3369;49.906;8.598;2023-02-12T12:28:58;9.70;99.90
6666;DHT22;3369;49.906;8.598;2023-02-12T12:33:34;9.70;99.90
6666;DHT22;3369;49.906;8.598;2023-02-12T12:47:00;9.70;99.90
6666;DHT22;3369;49.906;8.598;2023-02-12T12:49:43;9.70;99.90
6666;DHT22;3369;49.906;8.598;2023-02-12T13:14:43;9.70;99.90
6666;DHT22;3369;49.906;8.598;2023-02-12T13:17:18;9.70;99.90
6666;DHT22;3369;49.906;8.598;2023-02-12T13:20:16;9.70;99.90
6666;DHT22;3369;49.906;8.598;2023-02-12T13:23:04;9.70;99.90
6666;DHT22;3369;49.906;8.598;2023-02-12T13:28:28;9.80;99.90
6666;DHT22;3369;49.906;8.598;2023-02-12T13:30:56;9.80;99.90
6666;DHT22;3369;49.906;8.598;2023-02-12T13:33:27;9.90;99.90
6666;DHT22;3369;49.906;8.598;2023-02-12T13:35:56;9.90;99.90
6666;DHT22;3369;49.906;8.598;2023-02-12T13:38:33;9.90;99.90
6666;DHT22;3369;49.906;8.598;2023-02-12T13:41:03;10.00;99.90
6666;DHT22;3369;49.906;8.598;2023-02-12T13:43:43;10.00;99.90
6666;DHT22;3369;49.906;8.598;2023-02-12T13:49:44;10.00;99.90
6666;DHT22;3369;49.906;8.598;2023-02-12T13:52:01;10.00;99.90
6666;DHT22;3369;49.906;8.598;2023-02-12T13:57:19;10.10;99.90
6666;DHT22;3369;49.906;8.598;2023-02-12T13:59:54;10.20;99.90
6666;DHT22;3369;49.906;8.598;2023-02-12T14:07:19;10.20;99.90
6666;DHT22;3369;49.906;8.598;2023-02-12T14:10:06;10.20;99.90
6666;DHT22;3369;49.906;8.598;2023-02-12T14:12:36;10.20;99.90
6666;DHT22;3369;49.906;8.598;2023-02-12T14:15:09;10.20;99.90
6666;DHT22;3369;49.906;8.598;2023-02-12T14:17:52;10.20;99.90
6666;DHT22;3369;49.906;8.598;2023-02-12T14:27:49;10.20;99.90
6666;DHT22;3369;49.906;8.598;2023-02-12T14:30:31;10.20;99.90
6666;DHT22;3369;49.906;8.598;2023-02-12T14:33:08;10.30;99.90
6666;DHT22;3369;49.906;8.598;2023-02-12T14:55:53;10.20;99.90
6666;DHT22;3369;49.906;8.598;2023-02-12T14:58:22;10.20;99.90
6666;DHT22;3369;49.906;8.598;2023-02-12T15:00:51;10.10;99.90
6666;DHT22;3369;49.906;8.598;2023-02-12T15:06:22;10.10;99.90
6666;DHT22;3369;49.906;8.598;2023-02-12T15:09:02;10.10;99.90
6666;DHT22;3369;49.906;8.598;2023-02-12T15:11:42;10.00;99.90
6666;DHT22;3369;49.906;8.598;2023-02-12T15:16:48;10.00;99.90
6666;DHT22;3369;49.906;8.598;2023-02-12T15:19:43;9.90;99.90
6666;DHT22;3369;49.906;8.598;2023-02-12T15:22:34;9.90;99.90
6666;DHT22;3369;49.906;8.598;2023-02-12T15:25:25;9.80;99.90
6666;DHT22;3369;49.906;8.598;2023-02-12T15:27:54;9.80;99.90
6666;DHT22;3369;49.906;8.598;2023-02-12T15:30:24;9.70;99.90
6666;DHT22;3369;49.906;8.598;2023-02-12T15:32:51;9.70;99.90
6666;DHT22;3369;49.906;8.598;2023-02-12T15:37:46;9.60;99.90
6666;DHT22;3369;49.906;8.598;2023-02-12T15:40:13;9.50;99.90
6666;DHT22;3369;49.906;8.598;2023-02-12T15:42:40;9.50;99.90
6666;DHT22;3369;49.906;8.598;2023-02-12T15:45:20;9.40;99.90
6666;DHT22;3369;49.906;8.598;2023-02-12T15:48:16;9.30;99.90
6666;DHT22;3369;49.906;8.598;2023-02-12T15:50:56;9.30;99.90
6666;DHT22;3369;49.906;8.598;2023-02-12T15:53:27;9.30;99.90
6666;DHT22;3369;49.906;8.598;2023-02-12T15:55:56;9.20;99.90
6666;DHT22;3369;49.906;8.598;2023-02-12T15:58:26;9.10;99.90
6666;DHT22;3369;49.906;8.598;2023-02-12T16:00:53;9.20;99.90
6666;DHT22;3369;49.906;8.598;2023-02-12T16:03:28;9.00;99.90
6666;DHT22;3369;49.906;8.598;2023-02-12T16:06:07;9.00;99.90
6666;DHT22;3369;49.906;8.598;2023-02-12T16:08:39;8.90;99.90
6666;DHT22;3369;49.906;8.598;2023-02-12T16:11:07;8.90;99.90
6666;DHT22;3369;49.906;8.598;2023-02-12T16:13:45;8.80;99.90
6666;DHT22;3369;49.906;8.598;2023-02-12T16:18:38;8.70;99.90
6666;DHT22;3369;49.906;8.598;2023-02-12T16:23:42;8.50;99.90
6666;DHT22;3369;49.906;8.598;2023-02-12T16:26:15;8.40;99.90
6666;DHT22;3369;49.906;8.598;2023-02-12T16:28:52;8.30;99.90
6666;DHT22;3369;49.906;8.598;2023-02-12T16:31:18;8.20;99.90
6666;DHT22;3369;49.906;8.598;2023-02-12T16:33:51;8.10;99.90
6666;DHT22;3369;49.906;8.598;2023-02-12T16:38:58;7.90;99.90
6666;DHT22;3369;49.906;8.598;2023-02-12T16:41:25;7.80;99.90
6666;DHT22;3369;49.906;8.598;2023-02-12T16:46:33;7.70;99.90
6666;DHT22;3369;49.906;8.598;2023-02-12T16:49:17;7.60;99.90
6666;DHT22;3369;49.906;8.598;2023-02-12T16:51:44;7.50;99.90
6666;DHT22;3369;49.906;8.598;2023-02-12T16:54:29;7.50;99.90
6666;DHT22;3369;49.906;8.598;2023-02-12T16:56:56;7.40;99.90
6666;DHT22;3369;49.906;8.598;2023-02-12T16:59:22;7.30;99.90
6666;DHT22;3369;49.906;8.598;2023-02-12T17:02:12;7.20;99.90
6666;DHT22;3369;49.906;8.598;2023-02-12T17:04:38;7.10;99.90
6666;DHT22;3369;49.906;8.598;2023-02-12T17:07:15;7.00;99.90
6666;DHT22;3369;49.906;8.598;2023-02-12T17:09:42;7.00;99.90
6666;DHT22;3369;49.906;8.598;2023-02-12T17:12:07;6.90;99.90
6666;DHT22;3369;49.906;8.598;2023-02-12T17:14:33;6.90;99.90
6666;DHT22;3369;49.906;8.598;2023-02-12T17:16:58;6.80;99.90
6666;DHT22;3369;49.906;8.598;2023-02-12T17:19:24;6.80;99.90
6666;DHT22;3369;49.906;8.598;2023-02-12T17:21:50;6.70;99.90
6666;DHT22;3369;49.906;8.598;2023-02-12T17:24:23;6.70;99.90
6666;DHT22;3369;49.906;8.598;2023-02-12T17:26:51;6.60;99.90
6666;DHT22;3369;49.906;8.598;2023-02-12T17:29:17;6.50;99.90
6666;DHT22;3369;49.906;8.598;2023-02-12T17:31:43;6.50;99.90
6666;DHT22;3369;49.906;8.598;2023-02-12T17:34:09;6.40;99.90
6666;DHT22;3369;49.906;8.598;2023-02-12T17:36:36;6.40;99.90
6666;DHT22;3369;49.906;8.598;2023-02-12T17:39:03;6.30;99.90
6666;DHT22;3369;49.906;8.598;2023-02-12T17:41:30;6.30;99.90
6666;DHT22;3369;49.906;8.598;2023-02-12T17:43:55;6.30;99.90
6666;DHT22;3369;49.906;8.598;2023-02-12T17:46:24;6.30;99.90
6666;DHT22;3369;49.906;8.598;2023-02-12T17:48:50;6.30;99.90
6666;DHT22;3369;49.906;8.598;2023-02-12T17:51:16;6.20;99.90
6666;DHT22;3369;49.906;8.598;2023-02-12T17:53:41;6.20;99.90
6666;DHT22;3369;49.906;8.598;2023-02-12T17:56:13;6.20;99.90
6666;DHT22;3369;49.906;8.598;2023-02-12T17:58:39;6.20;99.90
6666;DHT22;3369;49.906;8.598;2023-02-12T18:01:07;6.20;99.90
6666;DHT22;3369;49.906;8.598;2023-02-12T18:03:33;6.20;99.90
6666;DHT22;3369;49.906;8.598;2023-02-12T18:05:59;6.20;99.90
6666;DHT22;3369;49.906;8.598;2023-02-12T18:08:25;6.20;99.90
6666;DHT22;3369;49.906;8.598;2023-02-12T18:10:50;6.30;99.90
6666;DHT22;3369;49.906;8.598;2023-02-12T18:13:16;6.30;99.90
6666;DHT22;3369;49.906;8.598;2023-02-12T18:15:42;6.40;99.90
6666;DHT22;3369;49.906;8.598;2023-02-12T18:18:07;6.40;99.90
6666;DHT22;3369;49.906;8.598;2023-02-12T18:20:34;6.40;99.90
6666;DHT22;3369;49.906;8.598;2023-02-12T18:22:59;6.50;99.90
6666;DHT22;3369;49.906;8.598;2023-02-12T18:25:25;6.50;99.90
6666;DHT22;3369;49.906;8.598;2023-02-12T18:27:51;6.50;99.90
6666;DHT22;3369;49.906;8.598;2023-02-12T18:30:16;6.60;99.90
6666;DHT22;3369;49.906;8.598;2023-02-12T18:32:42;6.60;99.90
6666;DHT22;3369;49.906;8.598;2023-02-12T18:35:08;6.70;99.90
6666;DHT22;3369;49.906;8.598;2023-02-12T18:37:34;6.80;99.90
6666;DHT22;3369;49.906;8.598;2023-02-12T18:40:00;6.80;99.90
6666;DHT22;3369;49.906;8.598;2023-02-12T18:42:26;6.80;99.90
6666;DHT22;3369;49.906;8.598;2023-02-12T18:44:53;6.90;99.90
6666;DHT22;3369;49.906;8.598;2023-02-12T18:47:19;6.90;99.90
6666;DHT22;3369;49.906;8.598;2023-02-12T18:49:45;7.00;99.90
6666;DHT22;3369;49.906;8.598;2023-02-12T18:52:11;7.00;99.90
6666;DHT22;3369;49.906;8.598;2023-02-12T18:54:37;7.00;99.90
6666;DHT22;3369;49.906;8.598;2023-02-12T18:57:02;7.10;99.90
6666;DHT22;3369;49.906;8.598;2023-02-12T18:59:28;7.10;99.90
6666;DHT22;3369;49.906;8.598;2023-02-12T19:01:54;7.20;99.90
6666;DHT22;3369;49.906;8.598;2023-02-12T19:04:21;7.20;99.90
6666;DHT22;3369;49.906;8.598;2023-02-12T19:06:50;7.30;99.90
6666;DHT22;3369;49.906;8.598;2023-02-12T19:09:18;7.40;99.90
6666;DHT22;3369;49.906;8.598;2023-02-12T19:11:47;7.40;99.90
6666;DHT22;3369;49.906;8.598;2023-02-12T19:14:14;7.40;99.90
6666;DHT22;3369;49.906;8.598;2023-02-12T19:16:40;7.40;99.90
6666;DHT22;3369;49.906;8.598;2023-02-12T19:19:06;7.40;99.90
6666;DHT22;3369;49.906;8.598;2023-02-12T19:21:33;7.50;99.90
6666;DHT22;3369;49.906;8.598;2023-02-12T19:24:00;7.50;99.90
6666;DHT22;3369;49.906;8.598;2023-02-12T19:26:27;7.50;99.90
6666;DHT22;3369;49.906;8.598;2023-02-12T19:28:54;7.50;99.90
6666;DHT22;3369;49.906;8.598;2023-02-12T19:31:30;7.50;99.90
6666;DHT22;3369;49.906;8.598;2023-02-12T19:34:07;7.50;99.90
6666;DHT22;3369;49.906;8.598;2023-02-12T19:36:35;7.50;99.90
6666;DHT22;3369;49.906;8.598;2023-02-12T19:39:03;7.50;99.90